sensor_id;sensor_type;location;lat;lon;timestamp;pressure;altitude;pressure_sealevel;temperature;humidity
29879;BME280;16752;53.364;-1.488;2024-01-11T00:00:50;102398.81;;;11.57;49.29
29879;BME280;16752;53.364;-1.488;2024-01-11T00:03:34;102397.97;;;10.83;49.72
29879;BME280;16752;53.364;-1.488;2024-01-11T00:06:18;102413.59;;;11.59;48.81
29879;BME280;16752;53.364;-1.488;2024-01-11T00:09:02;102392.22;;;11.22;49.27
29879;BME280;16752;53.364;-1.488;2024-01-11T00:11:47;102399.91;;;11.51;48.77
29879;BME280;16752;53.364;-1.488;2024-01-11T00:14:31;102412.63;;;11.62;48.59
29879;BME280;16752;53.364;-1.488;2024-01-11T00:17:15;102411.59;;;11.66;48.60
29879;BME280;16752;53.364;-1.488;2024-01-11T00:20:00;102356.91;;;11.32;48.60
29879;BME280;16752;53.364;-1.488;2024-01-11T00:22:44;102399.00;;;11.76;48.48
29879;BME280;16752;53.364;-1.488;2024-01-11T00:25:28;102410.41;;;11.75;48.50
29879;BME280;16752;53.364;-1.488;2024-01-11T00:28:12;102406.53;;;11.61;49.16
29879;BME280;16752;53.364;-1.488;2024-01-11T00:30:56;102406.28;;;11.68;49.24
29879;BME280;16752;53.364;-1.488;2024-01-11T00:33:40;102380.09;;;11.19;49.20
29879;BME280;16752;53.364;-1.488;2024-01-11T00:36:24;102370.47;;;11.43;49.09
29879;BME280;16752;53.364;-1.488;2024-01-11T00:39:08;102398.66;;;11.61;48.74
29879;BME280;16752;53.364;-1.488;2024-01-11T00:41:52;102367.28;;;11.35;48.80
29879;BME280;16752;53.364;-1.488;2024-01-11T00:44:36;102415.66;;;11.28;50.02
29879;BME280;16752;53.364;-1.488;2024-01-11T00:47:20;102377.66;;;11.38;48.92
29879;BME280;16752;53.364;-1.488;2024-01-11T00:50:04;102408.13;;;11.66;48.98
29879;BME280;16752;53.364;-1.488;2024-01-11T00:52:48;102368.38;;;11.29;49.12
29879;BME280;16752;53.364;-1.488;2024-01-11T00:55:32;102386.19;;;11.20;49.54
29879;BME280;16752;53.364;-1.488;2024-01-11T00:58:16;102422.34;;;11.60;48.96
29879;BME280;16752;53.364;-1.488;2024-01-11T01:01:00;102426.72;;;11.36;49.12
29879;BME280;16752;53.364;-1.488;2024-01-11T01:03:44;102418.19;;;11.54;48.72
29879;BME280;16752;53.364;-1.488;2024-01-11T01:06:28;102394.47;;;11.32;49.00
29879;BME280;16752;53.364;-1.488;2024-01-11T01:09:12;102392.38;;;11.42;48.15
29879;BME280;16752;53.364;-1.488;2024-01-11T01:11:57;102439.41;;;11.72;48.40
29879;BME280;16752;53.364;-1.488;2024-01-11T01:14:41;102421.34;;;11.39;48.71
29879;BME280;16752;53.364;-1.488;2024-01-11T01:17:25;102338.78;;;11.01;48.81
29879;BME280;16752;53.364;-1.488;2024-01-11T01:20:09;102404.47;;;11.46;48.50
29879;BME280;16752;53.364;-1.488;2024-01-11T01:22:55;102447.97;;;11.77;48.28
29879;BME280;16752;53.364;-1.488;2024-01-11T01:25:39;102437.06;;;11.64;48.53
29879;BME280;16752;53.364;-1.488;2024-01-11T01:28:23;102419.63;;;11.38;48.95
29879;BME280;16752;53.364;-1.488;2024-01-11T01:31:07;102448.97;;;11.49;49.50
29879;BME280;16752;53.364;-1.488;2024-01-11T01:33:50;102450.47;;;11.56;49.02
29879;BME280;16752;53.364;-1.488;2024-01-11T01:36:34;102452.31;;;11.54;48.28
29879;BME280;16752;53.364;-1.488;2024-01-11T01:39:18;102452.72;;;11.42;48.24
29879;BME280;16752;53.364;-1.488;2024-01-11T01:42:02;102454.63;;;11.62;47.85
29879;BME280;16752;53.364;-1.488;2024-01-11T01:44:47;102459.25;;;11.55;48.37
29879;BME280;16752;53.364;-1.488;2024-01-11T01:47:31;102461.78;;;11.58;48.01
29879;BME280;16752;53.364;-1.488;2024-01-11T01:50:15;102414.03;;;11.47;47.64
29879;BME280;16752;53.364;-1.488;2024-01-11T01:52:59;102467.63;;;11.42;48.77
29879;BME280;16752;53.364;-1.488;2024-01-11T01:55:44;102425.63;;;11.42;47.74
29879;BME280;16752;53.364;-1.488;2024-01-11T01:58:28;102400.97;;;11.22;48.15
29879;BME280;16752;53.364;-1.488;2024-01-11T02:01:13;102469.28;;;11.44;48.03
29879;BME280;16752;53.364;-1.488;2024-01-11T02:03:59;102456.38;;;11.38;47.77
29879;BME280;16752;53.364;-1.488;2024-01-11T02:06:45;102469.53;;;11.61;47.75
29879;BME280;16752;53.364;-1.488;2024-01-11T02:09:30;102474.38;;;11.24;47.82
29879;BME280;16752;53.364;-1.488;2024-01-11T02:12:14;102423.88;;;11.17;47.62
29879;BME280;16752;53.364;-1.488;2024-01-11T02:14:59;102428.84;;;10.75;48.73
29879;BME280;16752;53.364;-1.488;2024-01-11T02:17:44;102471.56;;;11.30;48.31
29879;BME280;16752;53.364;-1.488;2024-01-11T02:20:27;102445.88;;;11.38;47.21
29879;BME280;16752;53.364;-1.488;2024-01-11T02:23:15;102476.88;;;11.27;47.00
29879;BME280;16752;53.364;-1.488;2024-01-11T02:26:01;102455.16;;;11.23;46.88
29879;BME280;16752;53.364;-1.488;2024-01-11T02:28:45;102478.53;;;11.54;46.42
29879;BME280;16752;53.364;-1.488;2024-01-11T02:31:29;102481.34;;;11.50;46.66
29879;BME280;16752;53.364;-1.488;2024-01-11T02:34:14;102475.16;;;11.26;46.03
29879;BME280;16752;53.364;-1.488;2024-01-11T02:36:58;102485.72;;;11.49;46.39
29879;BME280;16752;53.364;-1.488;2024-01-11T02:39:43;102462.38;;;11.42;46.53
29879;BME280;16752;53.364;-1.488;2024-01-11T02:42:27;102481.00;;;11.09;47.82
29879;BME280;16752;53.364;-1.488;2024-01-11T02:45:12;102479.72;;;11.21;47.23
29879;BME280;16752;53.364;-1.488;2024-01-11T02:47:56;102488.84;;;11.36;46.87
29879;BME280;16752;53.364;-1.488;2024-01-11T02:50:40;102481.13;;;11.06;46.99
29879;BME280;16752;53.364;-1.488;2024-01-11T02:53:24;102480.78;;;11.40;46.62
29879;BME280;16752;53.364;-1.488;2024-01-11T02:56:07;102423.09;;;10.90;46.48
29879;BME280;16752;53.364;-1.488;2024-01-11T02:58:51;102461.56;;;10.90;46.88
29879;BME280;16752;53.364;-1.488;2024-01-11T03:01:36;102481.47;;;10.95;47.51
29879;BME280;16752;53.364;-1.488;2024-01-11T03:04:20;102485.09;;;11.18;47.85
29879;BME280;16752;53.364;-1.488;2024-01-11T03:07:04;102465.38;;;11.31;46.71
29879;BME280;16752;53.364;-1.488;2024-01-11T03:09:48;102495.78;;;11.61;46.68
29879;BME280;16752;53.364;-1.488;2024-01-11T03:12:31;102484.81;;;11.50;47.25
29879;BME280;16752;53.364;-1.488;2024-01-11T03:15:16;102420.13;;;10.99;48.06
29879;BME280;16752;53.364;-1.488;2024-01-11T03:18:00;102501.38;;;11.01;48.46
29879;BME280;16752;53.364;-1.488;2024-01-11T03:20:44;102454.41;;;11.20;47.32
29879;BME280;16752;53.364;-1.488;2024-01-11T03:23:28;102512.72;;;11.53;47.27
29879;BME280;16752;53.364;-1.488;2024-01-11T03:26:18;102511.66;;;11.58;47.06
29879;BME280;16752;53.364;-1.488;2024-01-11T03:29:02;102487.78;;;11.64;46.76
29879;BME280;16752;53.364;-1.488;2024-01-11T03:31:46;102487.38;;;11.52;46.76
29879;BME280;16752;53.364;-1.488;2024-01-11T03:34:30;102481.81;;;11.36;46.88
29879;BME280;16752;53.364;-1.488;2024-01-11T03:37:14;102496.91;;;11.54;47.09
29879;BME280;16752;53.364;-1.488;2024-01-11T03:39:58;102511.34;;;11.66;46.63
29879;BME280;16752;53.364;-1.488;2024-01-11T03:42:42;102481.94;;;11.33;46.48
29879;BME280;16752;53.364;-1.488;2024-01-11T03:45:27;102498.47;;;11.60;45.81
29879;BME280;16752;53.364;-1.488;2024-01-11T03:48:11;102506.28;;;11.61;45.65
29879;BME280;16752;53.364;-1.488;2024-01-11T03:50:55;102479.41;;;11.30;45.59
29879;BME280;16752;53.364;-1.488;2024-01-11T03:53:39;102490.00;;;11.27;46.38
29879;BME280;16752;53.364;-1.488;2024-01-11T03:56:23;102486.72;;;11.45;45.75
29879;BME280;16752;53.364;-1.488;2024-01-11T03:59:07;102469.22;;;11.21;45.93
29879;BME280;16752;53.364;-1.488;2024-01-11T04:01:51;102496.31;;;11.46;45.92
29879;BME280;16752;53.364;-1.488;2024-01-11T04:04:36;102484.81;;;11.50;45.57
29879;BME280;16752;53.364;-1.488;2024-01-11T04:07:20;102514.94;;;11.63;45.81
29879;BME280;16752;53.364;-1.488;2024-01-11T04:10:05;102471.94;;;11.43;45.80
29879;BME280;16752;53.364;-1.488;2024-01-11T04:12:49;102520.22;;;11.63;46.62
29879;BME280;16752;53.364;-1.488;2024-01-11T04:15:33;102506.50;;;11.55;46.41
29879;BME280;16752;53.364;-1.488;2024-01-11T04:18:17;102484.97;;;11.21;47.22
29879;BME280;16752;53.364;-1.488;2024-01-11T04:21:01;102517.53;;;11.65;46.51
29879;BME280;16752;53.364;-1.488;2024-01-11T04:23:44;102524.44;;;11.43;46.97
29879;BME280;16752;53.364;-1.488;2024-01-11T04:26:28;102514.63;;;11.48;47.33
29879;BME280;16752;53.364;-1.488;2024-01-11T04:29:12;102503.38;;;11.44;47.28
29879;BME280;16752;53.364;-1.488;2024-01-11T04:31:56;102473.50;;;11.23;47.74
29879;BME280;16752;53.364;-1.488;2024-01-11T04:34:40;102491.06;;;11.21;47.92
29879;BME280;16752;53.364;-1.488;2024-01-11T04:37:24;102519.63;;;11.55;47.38
29879;BME280;16752;53.364;-1.488;2024-01-11T04:40:08;102489.00;;;11.31;47.23
29879;BME280;16752;53.364;-1.488;2024-01-11T04:42:53;102504.06;;;11.49;46.52
29879;BME280;16752;53.364;-1.488;2024-01-11T04:45:36;102519.19;;;11.68;46.24
29879;BME280;16752;53.364;-1.488;2024-01-11T04:48:20;102486.84;;;11.42;46.60
29879;BME280;16752;53.364;-1.488;2024-01-11T04:51:04;102473.91;;;11.13;46.96
29879;BME280;16752;53.364;-1.488;2024-01-11T04:53:48;102501.56;;;11.46;46.08
29879;BME280;16752;53.364;-1.488;2024-01-11T04:56:32;102509.44;;;11.21;47.34
29879;BME280;16752;53.364;-1.488;2024-01-11T04:59:16;102532.81;;;11.02;46.88
29879;BME280;16752;53.364;-1.488;2024-01-11T05:02:00;102520.50;;;11.05;46.05
29879;BME280;16752;53.364;-1.488;2024-01-11T05:04:44;102514.38;;;10.51;47.77
29879;BME280;16752;53.364;-1.488;2024-01-11T05:07:28;102511.16;;;10.96;46.20
29879;BME280;16752;53.364;-1.488;2024-01-11T05:10:12;102535.78;;;11.18;46.88
29879;BME280;16752;53.364;-1.488;2024-01-11T05:12:56;102503.66;;;11.37;45.58
29879;BME280;16752;53.364;-1.488;2024-01-11T05:15:40;102531.44;;;11.67;45.21
29879;BME280;16752;53.364;-1.488;2024-01-11T05:18:24;102507.91;;;10.63;46.84
29879;BME280;16752;53.364;-1.488;2024-01-11T05:21:08;102505.44;;;11.36;45.38
29879;BME280;16752;53.364;-1.488;2024-01-11T05:23:52;102531.56;;;11.39;45.90
29879;BME280;16752;53.364;-1.488;2024-01-11T05:26:36;102493.84;;;11.17;46.01
29879;BME280;16752;53.364;-1.488;2024-01-11T05:29:20;102512.06;;;11.21;46.21
29879;BME280;16752;53.364;-1.488;2024-01-11T05:32:05;102542.41;;;11.80;45.25
29879;BME280;16752;53.364;-1.488;2024-01-11T05:34:49;102542.47;;;11.53;45.95
29879;BME280;16752;53.364;-1.488;2024-01-11T05:37:33;102542.41;;;11.80;45.20
29879;BME280;16752;53.364;-1.488;2024-01-11T05:40:17;102516.16;;;11.55;45.35
29879;BME280;16752;53.364;-1.488;2024-01-11T05:43:00;102533.94;;;11.72;45.43
29879;BME280;16752;53.364;-1.488;2024-01-11T05:45:45;102548.91;;;11.68;45.73
29879;BME280;16752;53.364;-1.488;2024-01-11T05:48:28;102569.66;;;11.51;46.47
29879;BME280;16752;53.364;-1.488;2024-01-11T05:51:12;102534.78;;;11.47;46.29
29879;BME280;16752;53.364;-1.488;2024-01-11T05:53:56;102568.75;;;11.77;46.12
29879;BME280;16752;53.364;-1.488;2024-01-11T05:56:40;102538.19;;;11.49;46.45
29879;BME280;16752;53.364;-1.488;2024-01-11T05:59:24;102560.25;;;11.19;47.28
29879;BME280;16752;53.364;-1.488;2024-01-11T06:02:08;102565.97;;;11.56;46.27
29879;BME280;16752;53.364;-1.488;2024-01-11T06:04:52;102544.97;;;11.56;46.15
29879;BME280;16752;53.364;-1.488;2024-01-11T06:07:36;102535.31;;;11.57;46.14
29879;BME280;16752;53.364;-1.488;2024-01-11T06:10:20;102544.59;;;11.42;46.54
29879;BME280;16752;53.364;-1.488;2024-01-11T06:13:05;102558.50;;;11.44;46.65
29879;BME280;16752;53.364;-1.488;2024-01-11T06:15:49;102573.09;;;12.03;45.31
29879;BME280;16752;53.364;-1.488;2024-01-11T06:18:33;102564.38;;;12.02;45.21
29879;BME280;16752;53.364;-1.488;2024-01-11T06:21:18;102577.84;;;12.16;44.79
29879;BME280;16752;53.364;-1.488;2024-01-11T06:24:02;102612.13;;;12.37;44.92
29879;BME280;16752;53.364;-1.488;2024-01-11T06:26:47;102576.16;;;11.90;44.72
29879;BME280;16752;53.364;-1.488;2024-01-11T06:29:31;102537.16;;;11.80;44.49
29879;BME280;16752;53.364;-1.488;2024-01-11T06:32:15;102615.09;;;12.28;44.96
29879;BME280;16752;53.364;-1.488;2024-01-11T06:34:59;102613.25;;;11.81;45.29
29879;BME280;16752;53.364;-1.488;2024-01-11T06:37:44;102596.00;;;11.99;45.41
29879;BME280;16752;53.364;-1.488;2024-01-11T06:40:27;102587.41;;;12.19;44.42
29879;BME280;16752;53.364;-1.488;2024-01-11T06:43:11;102618.38;;;12.09;44.79
29879;BME280;16752;53.364;-1.488;2024-01-11T06:45:55;102600.97;;;12.30;44.42
29879;BME280;16752;53.364;-1.488;2024-01-11T06:48:40;102634.88;;;12.38;44.84
29879;BME280;16752;53.364;-1.488;2024-01-11T06:51:24;102640.34;;;12.32;44.83
29879;BME280;16752;53.364;-1.488;2024-01-11T06:54:08;102610.34;;;12.14;45.25
29879;BME280;16752;53.364;-1.488;2024-01-11T06:56:52;102639.78;;;12.47;44.33
29879;BME280;16752;53.364;-1.488;2024-01-11T06:59:36;102621.56;;;12.42;44.52
29879;BME280;16752;53.364;-1.488;2024-01-11T07:02:20;102610.19;;;12.42;44.10
29879;BME280;16752;53.364;-1.488;2024-01-11T07:05:04;102626.34;;;12.54;44.03
29879;BME280;16752;53.364;-1.488;2024-01-11T07:07:48;102641.72;;;12.42;44.68
29879;BME280;16752;53.364;-1.488;2024-01-11T07:10:32;102644.06;;;12.49;44.68
29879;BME280;16752;53.364;-1.488;2024-01-11T07:13:16;102599.19;;;12.31;44.76
29879;BME280;16752;53.364;-1.488;2024-01-11T07:16:01;102644.63;;;12.34;44.93
29879;BME280;16752;53.364;-1.488;2024-01-11T07:18:46;102618.63;;;12.50;44.16
29879;BME280;16752;53.364;-1.488;2024-01-11T07:21:30;102613.91;;;12.36;44.75
29879;BME280;16752;53.364;-1.488;2024-01-11T07:24:15;102612.03;;;12.40;44.34
29879;BME280;16752;53.364;-1.488;2024-01-11T07:26:59;102589.09;;;11.97;45.32
29879;BME280;16752;53.364;-1.488;2024-01-11T07:29:43;102603.28;;;11.91;45.69
29879;BME280;16752;53.364;-1.488;2024-01-11T07:32:27;102650.66;;;12.38;45.04
29879;BME280;16752;53.364;-1.488;2024-01-11T07:35:11;102652.56;;;12.33;45.29
29879;BME280;16752;53.364;-1.488;2024-01-11T07:37:57;102650.53;;;12.41;44.79
29879;BME280;16752;53.364;-1.488;2024-01-11T07:40:41;102617.34;;;12.13;45.29
29879;BME280;16752;53.364;-1.488;2024-01-11T07:43:25;102611.66;;;12.02;45.44
29879;BME280;16752;53.364;-1.488;2024-01-11T07:46:10;102653.88;;;12.21;45.69
29879;BME280;16752;53.364;-1.488;2024-01-11T07:48:54;102679.44;;;12.41;45.23
29879;BME280;16752;53.364;-1.488;2024-01-11T07:51:38;102681.28;;;12.39;45.43
29879;BME280;16752;53.364;-1.488;2024-01-11T07:54:22;102687.28;;;12.66;45.20
29879;BME280;16752;53.364;-1.488;2024-01-11T07:57:07;102689.44;;;12.54;45.79
29879;BME280;16752;53.364;-1.488;2024-01-11T07:59:51;102673.16;;;11.97;46.87
29879;BME280;16752;53.364;-1.488;2024-01-11T08:02:35;102702.31;;;12.62;45.60
29879;BME280;16752;53.364;-1.488;2024-01-11T08:05:19;102695.97;;;12.44;46.17
29879;BME280;16752;53.364;-1.488;2024-01-11T08:08:04;102672.78;;;12.31;45.77
29879;BME280;16752;53.364;-1.488;2024-01-11T08:10:48;102682.19;;;12.38;46.25
29879;BME280;16752;53.364;-1.488;2024-01-11T08:13:33;102678.66;;;12.39;45.95
29879;BME280;16752;53.364;-1.488;2024-01-11T08:16:18;102688.69;;;12.51;46.11
29879;BME280;16752;53.364;-1.488;2024-01-11T08:19:02;102703.00;;;11.94;47.71
29879;BME280;16752;53.364;-1.488;2024-01-11T08:21:46;102712.59;;;12.45;46.93
29879;BME280;16752;53.364;-1.488;2024-01-11T08:24:30;102677.03;;;12.35;46.58
29879;BME280;16752;53.364;-1.488;2024-01-11T08:27:14;102679.75;;;12.32;47.29
29879;BME280;16752;53.364;-1.488;2024-01-11T08:30:00;102674.38;;;12.36;46.80
29879;BME280;16752;53.364;-1.488;2024-01-11T08:32:45;102688.69;;;12.51;46.75
29879;BME280;16752;53.364;-1.488;2024-01-11T08:35:29;102705.75;;;12.64;46.74
29879;BME280;16752;53.364;-1.488;2024-01-11T08:38:13;102715.72;;;12.54;46.76
29879;BME280;16752;53.364;-1.488;2024-01-11T08:40:57;102699.09;;;12.54;46.78
29879;BME280;16752;53.364;-1.488;2024-01-11T08:43:42;102675.31;;;12.34;47.56
29879;BME280;16752;53.364;-1.488;2024-01-11T08:46:26;102708.44;;;12.39;48.09
29879;BME280;16752;53.364;-1.488;2024-01-11T08:49:10;102710.09;;;12.42;48.34
29879;BME280;16752;53.364;-1.488;2024-01-11T08:51:54;102672.63;;;12.35;48.05
29879;BME280;16752;53.364;-1.488;2024-01-11T08:54:38;102707.78;;;12.08;49.17
29879;BME280;16752;53.364;-1.488;2024-01-11T08:57:22;102692.25;;;12.50;47.80
29879;BME280;16752;53.364;-1.488;2024-01-11T09:00:06;102704.25;;;12.57;48.04
29879;BME280;16752;53.364;-1.488;2024-01-11T09:02:50;102734.84;;;12.60;48.58
29879;BME280;16752;53.364;-1.488;2024-01-11T09:05:34;102689.06;;;12.17;49.04
29879;BME280;16752;53.364;-1.488;2024-01-11T09:08:18;102732.72;;;12.69;48.57
29879;BME280;16752;53.364;-1.488;2024-01-11T09:11:03;102744.25;;;12.17;50.05
29879;BME280;16752;53.364;-1.488;2024-01-11T09:13:47;102731.25;;;12.62;48.62
29879;BME280;16752;53.364;-1.488;2024-01-11T09:16:31;102730.78;;;12.74;48.63
29879;BME280;16752;53.364;-1.488;2024-01-11T09:19:15;102753.78;;;12.69;49.45
29879;BME280;16752;53.364;-1.488;2024-01-11T09:22:00;102740.84;;;12.63;49.34
29879;BME280;16752;53.364;-1.488;2024-01-11T09:24:44;102741.91;;;12.82;49.32
29879;BME280;16752;53.364;-1.488;2024-01-11T09:27:28;102734.06;;;12.81;49.43
29879;BME280;16752;53.364;-1.488;2024-01-11T09:30:12;102741.38;;;12.73;50.08
29879;BME280;16752;53.364;-1.488;2024-01-11T09:32:56;102769.19;;;12.78;50.36
29879;BME280;16752;53.364;-1.488;2024-01-11T09:35:40;102724.41;;;12.57;50.69
29879;BME280;16752;53.364;-1.488;2024-01-11T09:38:24;102760.19;;;12.62;50.51
29879;BME280;16752;53.364;-1.488;2024-01-11T09:41:11;102754.91;;;12.62;50.63
29879;BME280;16752;53.364;-1.488;2024-01-11T09:43:59;102747.09;;;12.61;50.68
29879;BME280;16752;53.364;-1.488;2024-01-11T09:46:44;102780.31;;;12.87;50.75
29879;BME280;16752;53.364;-1.488;2024-01-11T09:49:30;102741.41;;;12.48;51.07
29879;BME280;16752;53.364;-1.488;2024-01-11T09:52:15;102757.75;;;12.79;50.81
29879;BME280;16752;53.364;-1.488;2024-01-11T09:55:01;102786.81;;;13.00;50.54
29879;BME280;16752;53.364;-1.488;2024-01-11T09:57:47;102756.06;;;12.78;50.54
29879;BME280;16752;53.364;-1.488;2024-01-11T10:00:32;102747.03;;;12.85;50.24
29879;BME280;16752;53.364;-1.488;2024-01-11T10:03:16;102756.16;;;12.99;50.19
29879;BME280;16752;53.364;-1.488;2024-01-11T10:06:02;102793.66;;;13.05;50.33
29879;BME280;16752;53.364;-1.488;2024-01-11T10:08:47;102717.69;;;12.73;50.23
29879;BME280;16752;53.364;-1.488;2024-01-11T10:11:31;102782.94;;;12.87;50.74
29879;BME280;16752;53.364;-1.488;2024-01-11T10:14:15;102790.44;;;12.97;50.98
29879;BME280;16752;53.364;-1.488;2024-01-11T10:16:59;102781.91;;;12.91;51.04
29879;BME280;16752;53.364;-1.488;2024-01-11T10:19:43;102782.94;;;12.12;52.73
29879;BME280;16752;53.364;-1.488;2024-01-11T10:22:28;102790.72;;;12.90;51.02
29879;BME280;16752;53.364;-1.488;2024-01-11T10:25:13;102808.88;;;12.72;51.62
29879;BME280;16752;53.364;-1.488;2024-01-11T10:27:58;102802.53;;;13.03;51.16
29879;BME280;16752;53.364;-1.488;2024-01-11T10:30:45;102778.78;;;13.04;50.64
29879;BME280;16752;53.364;-1.488;2024-01-11T10:33:30;102769.41;;;12.49;52.05
29879;BME280;16752;53.364;-1.488;2024-01-11T10:36:14;102751.63;;;12.55;51.45
29879;BME280;16752;53.364;-1.488;2024-01-11T10:39:02;102781.25;;;13.09;50.92
29879;BME280;16752;53.364;-1.488;2024-01-11T10:41:51;102773.00;;;13.18;50.31
29879;BME280;16752;53.364;-1.488;2024-01-11T10:44:38;102784.94;;;12.55;51.85
29879;BME280;16752;53.364;-1.488;2024-01-11T10:47:30;102819.91;;;13.07;50.75
29879;BME280;16752;53.364;-1.488;2024-01-11T10:50:15;102816.31;;;13.09;50.24
29879;BME280;16752;53.364;-1.488;2024-01-11T10:53:03;102823.09;;;12.92;50.58
29879;BME280;16752;53.364;-1.488;2024-01-11T10:55:48;102773.66;;;12.76;50.35
29879;BME280;16752;53.364;-1.488;2024-01-11T10:58:34;102793.31;;;12.91;50.73
29879;BME280;16752;53.364;-1.488;2024-01-11T11:01:20;102828.94;;;13.25;50.20
29879;BME280;16752;53.364;-1.488;2024-01-11T11:04:06;102783.38;;;12.74;50.45
29879;BME280;16752;53.364;-1.488;2024-01-11T11:06:54;102807.50;;;12.62;51.33
29879;BME280;16752;53.364;-1.488;2024-01-11T11:09:39;102779.69;;;12.80;50.73
29879;BME280;16752;53.364;-1.488;2024-01-11T11:12:28;102807.03;;;13.24;49.81
29879;BME280;16752;53.364;-1.488;2024-01-11T11:15:12;102821.50;;;13.11;50.71
29879;BME280;16752;53.364;-1.488;2024-01-11T11:17:57;102828.16;;;13.21;49.89
29879;BME280;16752;53.364;-1.488;2024-01-11T11:20:42;102822.41;;;13.35;49.61
29879;BME280;16752;53.364;-1.488;2024-01-11T11:23:26;102819.16;;;13.28;50.04
29879;BME280;16752;53.364;-1.488;2024-01-11T11:26:14;102787.31;;;12.88;50.34
29879;BME280;16752;53.364;-1.488;2024-01-11T11:29:00;102807.72;;;13.04;50.44
29879;BME280;16752;53.364;-1.488;2024-01-11T11:31:45;102792.69;;;13.08;49.84
29879;BME280;16752;53.364;-1.488;2024-01-11T11:34:45;102809.97;;;13.38;49.49
29879;BME280;16752;53.364;-1.488;2024-01-11T11:37:30;102836.28;;;13.38;49.62
29879;BME280;16752;53.364;-1.488;2024-01-11T11:40:15;102781.72;;;13.20;49.19
29879;BME280;16752;53.364;-1.488;2024-01-11T11:43:01;102788.16;;;13.11;49.50
29879;BME280;16752;53.364;-1.488;2024-01-11T11:45:50;102799.81;;;13.29;49.43
29879;BME280;16752;53.364;-1.488;2024-01-11T11:51:25;102814.66;;;13.07;50.11
29879;BME280;16752;53.364;-1.488;2024-01-11T11:54:10;102830.31;;;13.57;49.61
29879;BME280;16752;53.364;-1.488;2024-01-11T11:56:55;102802.44;;;13.29;49.83
29879;BME280;16752;53.364;-1.488;2024-01-11T11:59:39;102816.00;;;13.17;50.06
29879;BME280;16752;53.364;-1.488;2024-01-11T12:02:25;102823.00;;;13.41;49.62
29879;BME280;16752;53.364;-1.488;2024-01-11T12:05:09;102807.03;;;13.24;49.80
29879;BME280;16752;53.364;-1.488;2024-01-11T12:07:53;102780.44;;;13.30;49.45
29879;BME280;16752;53.364;-1.488;2024-01-11T12:10:39;102822.25;;;13.14;50.61
29879;BME280;16752;53.364;-1.488;2024-01-11T12:13:24;102788.91;;;13.38;49.45
29879;BME280;16752;53.364;-1.488;2024-01-11T12:16:08;102787.66;;;13.02;50.46
29879;BME280;16752;53.364;-1.488;2024-01-11T12:18:52;102817.34;;;13.52;49.70
29879;BME280;16752;53.364;-1.488;2024-01-11T12:21:37;102804.56;;;12.95;50.90
29879;BME280;16752;53.364;-1.488;2024-01-11T12:24:21;102820.78;;;13.54;50.06
29879;BME280;16752;53.364;-1.488;2024-01-11T12:27:08;102819.50;;;13.41;50.27
29879;BME280;16752;53.364;-1.488;2024-01-11T12:29:52;102813.28;;;13.43;50.00
29879;BME280;16752;53.364;-1.488;2024-01-11T12:32:36;102777.25;;;13.44;49.16
29879;BME280;16752;53.364;-1.488;2024-01-11T12:35:21;102796.28;;;13.05;50.49
29879;BME280;16752;53.364;-1.488;2024-01-11T12:38:05;102804.53;;;13.20;49.93
29879;BME280;16752;53.364;-1.488;2024-01-11T12:40:50;102753.66;;;13.19;49.01
29879;BME280;16752;53.364;-1.488;2024-01-11T12:43:34;102741.78;;;12.85;49.42
29879;BME280;16752;53.364;-1.488;2024-01-11T12:46:18;102802.81;;;13.19;49.44
29879;BME280;16752;53.364;-1.488;2024-01-11T12:49:02;102811.66;;;12.93;50.66
29879;BME280;16752;53.364;-1.488;2024-01-11T12:51:46;102822.56;;;13.30;49.73
29879;BME280;16752;53.364;-1.488;2024-01-11T12:54:32;102787.19;;;13.14;49.53
29879;BME280;16752;53.364;-1.488;2024-01-11T12:57:19;102798.75;;;13.10;49.54
29879;BME280;16752;53.364;-1.488;2024-01-11T13:00:11;102782.09;;;12.86;49.74
29879;BME280;16752;53.364;-1.488;2024-01-11T13:02:56;102775.56;;;13.43;48.69
29879;BME280;16752;53.364;-1.488;2024-01-11T13:05:39;102790.72;;;13.13;49.42
29879;BME280;16752;53.364;-1.488;2024-01-11T13:08:24;102783.19;;;13.04;49.33
29879;BME280;16752;53.364;-1.488;2024-01-11T13:11:08;102814.13;;;13.44;48.79
29879;BME280;16752;53.364;-1.488;2024-01-11T13:13:57;102793.06;;;13.66;47.75
29879;BME280;16752;53.364;-1.488;2024-01-11T13:16:45;102806.50;;;13.60;48.16
29879;BME280;16752;53.364;-1.488;2024-01-11T13:19:30;102814.06;;;13.69;47.90
29879;BME280;16752;53.364;-1.488;2024-01-11T13:22:14;102792.31;;;12.94;49.03
29879;BME280;16752;53.364;-1.488;2024-01-11T13:24:58;102769.94;;;13.30;48.26
29879;BME280;16752;53.364;-1.488;2024-01-11T13:27:42;102776.28;;;13.25;47.32
29879;BME280;16752;53.364;-1.488;2024-01-11T13:30:26;102806.00;;;13.50;47.35
29879;BME280;16752;53.364;-1.488;2024-01-11T13:33:10;102769.09;;;13.73;46.52
29879;BME280;16752;53.364;-1.488;2024-01-11T13:35:57;102799.72;;;13.76;47.05
29879;BME280;16752;53.364;-1.488;2024-01-11T13:38:42;102780.47;;;13.52;47.38
29879;BME280;16752;53.364;-1.488;2024-01-11T13:41:26;102804.94;;;13.32;47.55
29879;BME280;16752;53.364;-1.488;2024-01-11T13:44:10;102808.41;;;13.09;49.21
29879;BME280;16752;53.364;-1.488;2024-01-11T13:46:55;102786.84;;;13.47;47.28
29879;BME280;16752;53.364;-1.488;2024-01-11T13:49:39;102762.69;;;13.35;46.99
29879;BME280;16752;53.364;-1.488;2024-01-11T13:52:23;102821.34;;;13.39;48.62
29879;BME280;16752;53.364;-1.488;2024-01-11T13:55:07;102803.50;;;13.47;48.30
29879;BME280;16752;53.364;-1.488;2024-01-11T13:57:53;102817.09;;;13.58;48.09
29879;BME280;16752;53.364;-1.488;2024-01-11T14:00:37;102799.13;;;13.24;48.57
29879;BME280;16752;53.364;-1.488;2024-01-11T14:03:21;102804.34;;;13.48;48.27
29879;BME280;16752;53.364;-1.488;2024-01-11T14:06:06;102807.97;;;13.45;48.85
29879;BME280;16752;53.364;-1.488;2024-01-11T14:08:50;102783.53;;;13.18;48.42
29879;BME280;16752;53.364;-1.488;2024-01-11T14:11:34;102793.06;;;13.44;48.51